Terminal Aerodrome Forecast
Issued by NWS Wilmington, OH

Current Version | Previous Version | Text Only | Print | Product List | Glossary Off
Versions: 1 2 3 4 5 6 7 8 9 10 11 12 13 14 15 16 17 18 19

900
FTUS41 KILN 201728
TAFCMH
TAF
KCMH 201728Z 2018/2118 15009KT P6SM OVC012
     FM202200 18009KT 4SM -TSRA BR OVC035CB
     FM210100 VRB03KT 4SM -SHRA BR OVC015
     FM210400 36005KT 5SM BR OVC007
     FM211000 35009KT 5SM BR OVC015=

USA.gov is the U.S. government's official web portal to all federal, state and local government web resources and services.